Observation data for Seymour on 11/19/2019      Previous  Date       Current Mesonet Observations  Soil Data  Daily Summary Page  Observations in Plain Language
KSE1 190600Z 25004KT 07/03 A2992 RMK A01 T00670027  RH  077%=      5-min Rain = 0
KSE1 190605Z 25005KT 07/03 A2992 RMK A01 T00660028  RH  078%=      5-min Rain = 0
KSE1 190610Z 26004KT 07/03 A2992 RMK A01 T00660029  RH  078%=      5-min Rain = 0
KSE1 190615Z 25003KT 07/03 A2992 RMK A01 T00660030  RH  079%=      5-min Rain = 0
KSE1 190620Z 25004KT 07/03 A2992 RMK A01 T00680031  RH  079%=      5-min Rain = 0
KSE1 190625Z 25004KT 07/03 A2992 RMK A01 T00690030  RH  078%=      5-min Rain = 0
KSE1 190630Z 25003KT 07/03 A2992 RMK A01 T00680029  RH  078%=      5-min Rain = 0
KSE1 190635Z 23003KT 07/03 A2992 RMK A01 T00670030  RH  078%=      5-min Rain = 0
KSE1 190640Z 23003KT 06/03 A2992 RMK A01 T00640027  RH  079%=      5-min Rain = 0
KSE1 190645Z 24002KT 06/03 A2992 RMK A01 T00620028  RH  080%=      5-min Rain = 0
KSE1 190650Z 23003KT 06/03 A2992 RMK A01 T00620029  RH  081%=      5-min Rain = 0
KSE1 190655Z 23003KT 06/03 A2992 RMK A01 T00630031  RH  081%=      5-min Rain = 0
KSE1 190700Z 23002KT 06/03 A2992 RMK A01 T00620030  RH  082%=      5-min Rain = 0
KSE1 190705Z 24002KT 06/03 A2992 RMK A01 T00630032  RH  082%=      5-min Rain = 0
KSE1 190710Z 23003KT 06/03 A2992 RMK A01 T00640032  RH  082%=      5-min Rain = 0
KSE1 190715Z 24003KT 06/03 A2992 RMK A01 T00610030  RH  082%=      5-min Rain = 0
KSE1 190720Z 24003KT 06/03 A2992 RMK A01 T00600031  RH  083%=      5-min Rain = 0
KSE1 190725Z 25001KT 06/03 A2993 RMK A01 T00620034  RH  084%=      5-min Rain = 0
KSE1 190730Z 26001KT 07/04 A2993 RMK A01 T00650035  RH  083%=      5-min Rain = 0
KSE1 190735Z 27000KT 06/04 A2993 RMK A01 T00620035  RH  084%=      5-min Rain = 0
KSE1 190740Z 25001KT 06/03 A2993 RMK A01 T00620034  RH  084%=      5-min Rain = 0
KSE1 190745Z 23001KT 06/03 A2993 RMK A01 T00550029  RH  084%=      5-min Rain = 0
KSE1 190750Z 19002KT 06/03 A2993 RMK A01 T00550032  RH  086%=      5-min Rain = 0
KSE1 190755Z 20003KT 06/03 A2993 RMK A01 T00570032  RH  086%=      5-min Rain = 0
KSE1 190800Z 19003KT 06/03 A2993 RMK A01 T00560028  RH  084%=      5-min Rain = 0
KSE1 190805Z 20003KT 05/02 A2993 RMK A01 T00480015  RH  081%=      5-min Rain = 0
KSE1 190810Z 21003KT 05/02 A2993 RMK A01 T00450017  RH  083%=      5-min Rain = 0
KSE1 190815Z 22003KT 05/02 A2993 RMK A01 T00450019  RH  085%=      5-min Rain = 0
KSE1 190820Z 21003KT 05/02 A2993 RMK A01 T00460021  RH  086%=      5-min Rain = 0
KSE1 190825Z 19003KT 05/03 A2993 RMK A01 T00490025  RH  086%=      5-min Rain = 0
KSE1 190830Z 20003KT 06/03 A2993 RMK A01 T00560031  RH  086%=      5-min Rain = 0
KSE1 190835Z 20002KT 06/03 A2993 RMK A01 T00590031  RH  084%=      5-min Rain = 0
KSE1 190840Z 20001KT 06/03 A2993 RMK A01 T00560028  RH  084%=      5-min Rain = 0
KSE1 190845Z 22001KT 05/03 A2993 RMK A01 T00520025  RH  084%=      5-min Rain = 0
KSE1 190850Z 22001KT 05/03 A2993 RMK A01 T00540029  RH  086%=      5-min Rain = 0
KSE1 190855Z 20002KT 05/03 A2993 RMK A01 T00530028  RH  086%=      5-min Rain = 0
KSE1 190900Z 19002KT 05/03 A2993 RMK A01 T00500026  RH  086%=      5-min Rain = 0
KSE1 190905Z 18003KT 05/03 A2993 RMK A01 T00480027  RH  087%=      5-min Rain = 0
KSE1 190910Z 18003KT 05/03 A2993 RMK A01 T00460025  RH  088%=      5-min Rain = 0
KSE1 190915Z 18002KT 05/03 A2993 RMK A01 T00510029  RH  087%=      5-min Rain = 0
KSE1 190920Z 20001KT 05/03 A2993 RMK A01 T00500027  RH  086%=      5-min Rain = 0
KSE1 190925Z 22000KT 05/03 A2992 RMK A01 T00510028  RH  087%=      5-min Rain = 0
KSE1 190930Z 22000KT 05/03 A2992 RMK A01 T00480027  RH  088%=      5-min Rain = 0
KSE1 190935Z 20000KT 05/03 A2992 RMK A01 T00450026  RH  089%=      5-min Rain = 0
KSE1 190940Z 19000KT 04/02 A2992 RMK A01 T00420024  RH  089%=      5-min Rain = 0
KSE1 190945Z 19000KT 05/03 A2992 RMK A01 T00450029  RH  091%=      5-min Rain = 0
KSE1 190950Z 22000KT 05/03 A2992 RMK A01 T00490032  RH  090%=      5-min Rain = 0
KSE1 190955Z 22002KT 04/02 A2992 RMK A01 T00410021  RH  088%=      5-min Rain = 0
KSE1 191000Z 22001KT 04/02 A2992 RMK A01 T00390022  RH  090%=      5-min Rain = 0
KSE1 191005Z 23000KT 04/03 A2993 RMK A01 T00410026  RH  091%=      5-min Rain = 0
KSE1 191010Z 22002KT 04/03 A2993 RMK A01 T00420026  RH  091%=      5-min Rain = 0
KSE1 191015Z 24001KT 04/02 A2993 RMK A01 T00370021  RH  091%=      5-min Rain = 0
KSE1 191020Z 24001KT 04/03 A2993 RMK A01 T00390026  RH  092%=      5-min Rain = 0
KSE1 191025Z 22001KT 04/03 A2994 RMK A01 T00420028  RH  092%=      5-min Rain = 0
KSE1 191030Z 23000KT 04/03 A2994 RMK A01 T00430029  RH  092%=      5-min Rain = 0
KSE1 191035Z 22000KT 04/03 A2993 RMK A01 T00430029  RH  092%=      5-min Rain = 0
KSE1 191040Z 20001KT 04/03 A2993 RMK A01 T00440030  RH  092%=      5-min Rain = 0
KSE1 191045Z 18001KT 04/02 A2994 RMK A01 T00390023  RH  091%=      5-min Rain = 0
KSE1 191050Z 19001KT 04/03 A2994 RMK A01 T00390025  RH  092%=      5-min Rain = 0
KSE1 191055Z 19002KT 04/03 A2994 RMK A01 T00390025  RH  092%=      5-min Rain = 0
KSE1 191100Z 19003KT 04/02 A2994 RMK A01 T00380023  RH  091%=      5-min Rain = 0
KSE1 191105Z 20003KT 04/02 A2995 RMK A01 T00350018  RH  090%=      5-min Rain = 0
KSE1 191110Z 20001KT 03/02 A2994 RMK A01 T00340017  RH  090%=      5-min Rain = 0
KSE1 191115Z 21001KT 04/02 A2995 RMK A01 T00350020  RH  091%=      5-min Rain = 0
KSE1 191120Z 20000KT 04/02 A2995 RMK A01 T00370022  RH  091%=      5-min Rain = 0
KSE1 191125Z 20000KT 04/02 A2995 RMK A01 T00380023  RH  091%=      5-min Rain = 0
KSE1 191130Z 19000KT 04/02 A2995 RMK A01 T00380022  RH  091%=      5-min Rain = 0
KSE1 191135Z 23000KT 04/02 A2995 RMK A01 T00380023  RH  091%=      5-min Rain = 0
KSE1 191140Z 26000KT 04/03 A2995 RMK A01 T00420027  RH  092%=      5-min Rain = 0
KSE1 191145Z 27000KT 04/03 A2995 RMK A01 T00420025  RH  090%=      5-min Rain = 0
KSE1 191150Z 27000KT 04/02 A2995 RMK A01 T00400024  RH  091%=      5-min Rain = 0
KSE1 191155Z 26000KT 04/02 A2995 RMK A01 T00390024  RH  091%=      5-min Rain = 0
KSE1 191200Z 26000KT 04/02 A2995 RMK A01 T00370022  RH  092%=      5-min Rain = 0
KSE1 191205Z 23000KT 04/02 A2995 RMK A01 T00350021  RH  092%=      5-min Rain = 0
KSE1 191210Z 23000KT 04/02 A2995 RMK A01 T00350022  RH  093%=      5-min Rain = 0
KSE1 191215Z 21001KT 04/02 A2995 RMK A01 T00360024  RH  093%=      5-min Rain = 0
KSE1 191220Z 21001KT 04/03 A2995 RMK A01 T00370025  RH  093%=      5-min Rain = 0
KSE1 191225Z 21000KT 04/03 A2995 RMK A01 T00380026  RH  094%=      5-min Rain = 0
KSE1 191230Z 19000KT 04/02 A2995 RMK A01 T00360022  RH  093%=      5-min Rain = 0
KSE1 191235Z 18000KT 03/02 A2995 RMK A01 T00300016  RH  092%=      5-min Rain = 0
KSE1 191240Z 19000KT 03/02 A2995 RMK A01 T00330020  RH  093%=      5-min Rain = 0
KSE1 191245Z 19000KT 04/02 A2995 RMK A01 T00350022  RH  092%=      5-min Rain = 0
KSE1 191250Z 20000KT 04/02 A2995 RMK A01 T00360022  RH  092%=      5-min Rain = 0
KSE1 191255Z 20000KT 03/02 A2995 RMK A01 T00340020  RH  092%=      5-min Rain = 0
KSE1 191300Z 21000KT 03/02 A2996 RMK A01 T00340020  RH  092%=      5-min Rain = 0
KSE1 191305Z 21000KT 03/02 A2996 RMK A01 T00300016  RH  092%=      5-min Rain = 0
KSE1 191310Z 21000KT 03/02 A2996 RMK A01 T00310018  RH  093%=      5-min Rain = 0
KSE1 191315Z 21000KT 03/02 A2996 RMK A01 T00320020  RH  093%=      5-min Rain = 0
KSE1 191320Z 21000KT 03/02 A2995 RMK A01 T00330021  RH  093%=      5-min Rain = 0
KSE1 191325Z 21000KT 03/02 A2995 RMK A01 T00320020  RH  093%=      5-min Rain = 0
KSE1 191330Z 21000KT 03/02 A2995 RMK A01 T00330022  RH  094%=      5-min Rain = 0
KSE1 191335Z 20000KT 04/02 A2995 RMK A01 T00350023  RH  093%=      5-min Rain = 0
KSE1 191340Z 20000KT 04/03 A2995 RMK A01 T00380025  RH  092%=      5-min Rain = 0
KSE1 191345Z 20000KT 04/02 A2995 RMK A01 T00400024  RH  090%=      5-min Rain = 0
KSE1 191350Z 20000KT 05/03 A2995 RMK A01 T00450030  RH  091%=      5-min Rain = 0
KSE1 191355Z 19000KT 06/04 A2995 RMK A01 T00550036  RH  089%=      5-min Rain = 0
KSE1 191400Z 17000KT 06/04 A2996 RMK A01 T00630039  RH  086%=      5-min Rain = 0
KSE1 191405Z 18000KT 07/04 A2996 RMK A01 T00670037  RH  082%=      5-min Rain = 0
KSE1 191410Z 17000KT 07/04 A2996 RMK A01 T00700037  RH  081%=      5-min Rain = 0
KSE1 191415Z 18000KT 07/04 A2996 RMK A01 T00710038  RH  081%=      5-min Rain = 0
KSE1 191420Z 16000KT 07/04 A2996 RMK A01 T00730041  RH  082%=      5-min Rain = 0
KSE1 191425Z 15000KT 08/05 A2996 RMK A01 T00790046  RH  081%=      5-min Rain = 0
KSE1 191430Z 15000KT 09/05 A2996 RMK A01 T00860049  RH  079%=      5-min Rain = 0
KSE1 191435Z 15001KT 09/05 A2996 RMK A01 T00920048  RH  075%=      5-min Rain = 0
KSE1 191440Z 17002KT 09/05 A2996 RMK A01 T00930049  RH  076%=      5-min Rain = 0
KSE1 191445Z 18003KT 10/05 A2996 RMK A01 T00950049  RH  075%=      5-min Rain = 0
KSE1 191450Z 18004KT 10/05 A2996 RMK A01 T00960049  RH  074%=      5-min Rain = 0
KSE1 191455Z 18004KT 10/05 A2996 RMK A01 T00990053  RH  075%=      5-min Rain = 0
KSE1 191500Z 18004KT 10/05 A2996 RMK A01 T01010053  RH  074%=      5-min Rain = 0
KSE1 191505Z 18005KT 10/06 A2996 RMK A01 T01040055  RH  074%=      5-min Rain = 0
KSE1 191510Z 18005KT 11/06 A2996 RMK A01 T01100056  RH  071%=      5-min Rain = 0
KSE1 191515Z 19005KT 12/06 A2996 RMK A01 T01150055  RH  068%=      5-min Rain = 0
KSE1 191520Z 18005KT 12/06 A2996 RMK A01 T01180055  RH  066%=      5-min Rain = 0
KSE1 191525Z 18005KT 12/06 A2996 RMK A01 T01230055  RH  065%=      5-min Rain = 0
KSE1 191530Z 18005KT 13/06 A2996 RMK A01 T01280055  RH  063%=      5-min Rain = 0
KSE1 191535Z 18005KT 13/06 A2996 RMK A01 T01330055  RH  060%=      5-min Rain = 0
KSE1 191540Z 17005KT 14/06 A2996 RMK A01 T01400055  RH  058%=      5-min Rain = 0
KSE1 191545Z 16005KT 15/05 A2996 RMK A01 T01470053  RH  055%=      5-min Rain = 0
KSE1 191550Z 15006KT 16/05 A2996 RMK A01 T01560050  RH  050%=      5-min Rain = 0
KSE1 191555Z 16006KT 16/05 A2997 RMK A01 T01600048  RH  048%=      5-min Rain = 0
KSE1 191600Z 16006KT 16/05 A2997 RMK A01 T01640047  RH  046%=      5-min Rain = 0
KSE1 191605Z 17006KT 17/05 A2997 RMK A01 T01670049  RH  047%=      5-min Rain = 0
KSE1 191610Z 17006KT 17/05 A2997 RMK A01 T01670048  RH  046%=      5-min Rain = 0
KSE1 191615Z 18006KT 17/05 A2997 RMK A01 T01700048  RH  045%=      5-min Rain = 0
KSE1 191620Z 17006KT 18/05 A2997 RMK A01 T01770049  RH  044%=      5-min Rain = 0
KSE1 191625Z 18009KT 18/05 A2997 RMK A01 T01840046  RH  041%=      5-min Rain = 0
KSE1 191630Z 17008KT 19/04 A2997 RMK A01 T01860044  RH  040%=      5-min Rain = 0
KSE1 191635Z 15008KT 19/05 A2996 RMK A01 T01910046  RH  039%=      5-min Rain = 0
KSE1 191640Z 16007KT 20/05 A2996 RMK A01 T01960046  RH  038%=      5-min Rain = 0
KSE1 191645Z 15006KT 20/05 A2996 RMK A01 T02000046  RH  037%=      5-min Rain = 0
KSE1 191650Z 15006KT 20/05 A2996 RMK A01 T02040045  RH  036%=      5-min Rain = 0
KSE1 191655Z 16006KT 21/05 A2996 RMK A01 T02050046  RH  036%=      5-min Rain = 0
KSE1 191700Z 17006KT 21/05 A2995 RMK A01 T02120047  RH  035%=      5-min Rain = 0
KSE1 191705Z 17005KT 22/05 A2995 RMK A01 T02160047  RH  034%=      5-min Rain = 0
KSE1 191710Z 17006KT 22/05 A2995 RMK A01 T02160047  RH  034%=      5-min Rain = 0
KSE1 191715Z 17007KT 22/05 A2995 RMK A01 T02180047  RH  034%=      5-min Rain = 0
KSE1 191720Z 17007KT 22/05 A2995 RMK A01 T02210047  RH  033%=      5-min Rain = 0
KSE1 191725Z 17008KT 22/05 A2994 RMK A01 T02240049  RH  033%=      5-min Rain = 0
KSE1 191730Z 17007KT 23/05 A2994 RMK A01 T02250050  RH  033%=      5-min Rain = 0
KSE1 191735Z 19008G13KT 23/05 A2994 RMK A01 T02280054  RH  033%=      5-min Rain = 0
KSE1 191740Z 20007G12KT 23/06 A2994 RMK A01 T02270055  RH  033%=      5-min Rain = 0
KSE1 191745Z 20008KT 23/06 A2993 RMK A01 T02270056  RH  034%=      5-min Rain = 0
KSE1 191750Z 20008KT 23/06 A2993 RMK A01 T02330057  RH  033%=      5-min Rain = 0
KSE1 191755Z 20008KT 23/06 A2993 RMK A01 T02300056  RH  033%=      5-min Rain = 0
KSE1 191800Z 20008KT 23/06 A2993 RMK A01 T02330058  RH  033%=      5-min Rain = 0
KSE1 191805Z 20008KT 24/06 A2992 RMK A01 T02370059  RH  032%=      5-min Rain = 0
KSE1 191810Z 19009KT 24/06 A2992 RMK A01 T02350059  RH  033%=      5-min Rain = 0
KSE1 191815Z 19008KT 24/06 A2992 RMK A01 T02350061  RH  033%=      5-min Rain = 0
KSE1 191820Z 20007KT 24/06 A2992 RMK A01 T02420064  RH  033%=      5-min Rain = 0
KSE1 191825Z 19009KT 24/07 A2991 RMK A01 T02430065  RH  033%=      5-min Rain = 0
KSE1 191830Z 20009KT 24/07 A2991 RMK A01 T02400065  RH  033%=      5-min Rain = 0
KSE1 191835Z 20008G13KT 24/06 A2991 RMK A01 T02370064  RH  034%=      5-min Rain = 0
KSE1 191840Z 20008KT 23/06 A2991 RMK A01 T02320063  RH  034%=      5-min Rain = 0
KSE1 191845Z 20008KT 23/06 A2991 RMK A01 T02320064  RH  035%=      5-min Rain = 0
KSE1 191850Z 19006KT 23/07 A2991 RMK A01 T02310065  RH  035%=      5-min Rain = 0
KSE1 191855Z 19006KT 23/07 A2991 RMK A01 T02340065  RH  034%=      5-min Rain = 0
KSE1 191900Z 19006KT 23/07 A299 RMK A01 T02340065  RH  035%=      5-min Rain = 0
KSE1 191905Z 18005KT 24/07 A299 RMK A01 T02380065  RH  033%=      5-min Rain = 0
KSE1 191910Z 19006KT 24/07 A299 RMK A01 T02430065  RH  032%=      5-min Rain = 0
KSE1 191915Z 20007KT 25/06 A2989 RMK A01 T02500064  RH  031%=      5-min Rain = 0
KSE1 191920Z 19007KT 25/06 A2989 RMK A01 T02480060  RH  031%=      5-min Rain = 0
KSE1 191925Z 19006G12KT 25/06 A2989 RMK A01 T02490060  RH  031%=      5-min Rain = 0
KSE1 191930Z 19005KT 25/06 A2988 RMK A01 T02530061  RH  030%=      5-min Rain = 0
KSE1 191935Z 18005KT 26/06 A2988 RMK A01 T02560059  RH  029%=      5-min Rain = 0
KSE1 191940Z 17006G14KT 26/06 A2987 RMK A01 T02600057  RH  028%=      5-min Rain = 0
KSE1 191945Z 19006KT 25/06 A2987 RMK A01 T02530055  RH  029%=      5-min Rain = 0
KSE1 191950Z 18005G10KT 25/06 A2987 RMK A01 T02540056  RH  029%=      5-min Rain = 0
KSE1 191955Z 18007KT 26/06 A2987 RMK A01 T02620057  RH  028%=      5-min Rain = 0
KSE1 192000Z 19008KT 26/06 A2987 RMK A01 T02620056  RH  027%=      5-min Rain = 0
KSE1 192005Z 19006KT 26/05 A2986 RMK A01 T02630054  RH  027%=      5-min Rain = 0
KSE1 192010Z 21007KT 26/05 A2986 RMK A01 T02640054  RH  027%=      5-min Rain = 0
KSE1 192015Z 18007KT 26/05 A2985 RMK A01 T02630049  RH  026%=      5-min Rain = 0
KSE1 192020Z 16011G17KT 27/04 A2985 RMK A01 T02650041  RH  024%=      5-min Rain = 0
KSE1 192025Z 15011KT 27/04 A2985 RMK A01 T02650039  RH  024%=      5-min Rain = 0
KSE1 192030Z 16009G17KT 27/04 A2985 RMK A01 T02690037  RH  023%=      5-min Rain = 0
KSE1 192035Z 15012KT 27/04 A2985 RMK A01 T02660036  RH  023%=      5-min Rain = 0
KSE1 192040Z 16011KT 27/04 A2984 RMK A01 T02660036  RH  023%=      5-min Rain = 0
KSE1 192045Z 16012G17KT 27/04 A2984 RMK A01 T02650036  RH  023%=      5-min Rain = 0
KSE1 192050Z 15014KT 27/04 A2984 RMK A01 T02670035  RH  023%=      5-min Rain = 0
KSE1 192055Z 15014KT 27/03 A2983 RMK A01 T02650032  RH  023%=      5-min Rain = 0
KSE1 192100Z 14014KT 27/03 A2983 RMK A01 T02660034  RH  023%=      5-min Rain = 0
KSE1 192105Z 16014KT 27/04 A2983 RMK A01 T02650036  RH  023%=      5-min Rain = 0
KSE1 192110Z 17014KT 26/04 A2983 RMK A01 T02630041  RH  024%=      5-min Rain = 0
KSE1 192115Z 16013KT 26/05 A2983 RMK A01 T02640045  RH  025%=      5-min Rain = 0
KSE1 192120Z 17014KT 26/05 A2983 RMK A01 T02600045  RH  026%=      5-min Rain = 0
KSE1 192125Z 15013G19KT 26/05 A2983 RMK A01 T02610046  RH  026%=      5-min Rain = 0
KSE1 192130Z 16013KT 26/05 A2983 RMK A01 T02610047  RH  026%=      5-min Rain = 0
KSE1 192135Z 14012G18KT 26/05 A2983 RMK A01 T02600046  RH  026%=      5-min Rain = 0
KSE1 192140Z 14012KT 26/05 A2983 RMK A01 T02610046  RH  026%=      5-min Rain = 0
KSE1 192145Z 15013KT 26/05 A2982 RMK A01 T02600046  RH  026%=      5-min Rain = 0
KSE1 192150Z 16011KT 26/05 A2982 RMK A01 T02610047  RH  026%=      5-min Rain = 0
KSE1 192155Z 14010KT 26/05 A2982 RMK A01 T02630049  RH  026%=      5-min Rain = 0
KSE1 192200Z 15014G19KT 26/05 A2982 RMK A01 T02620045  RH  025%=      5-min Rain = 0
KSE1 192205Z 16014G20KT 26/04 A2981 RMK A01 T02600042  RH  025%=      5-min Rain = 0
KSE1 192210Z 16014G19KT 26/04 A2981 RMK A01 T02600041  RH  025%=      5-min Rain = 0
KSE1 192215Z 15014KT 26/04 A2981 RMK A01 T02590039  RH  025%=      5-min Rain = 0
KSE1 192220Z 15013KT 26/04 A2981 RMK A01 T02590038  RH  024%=      5-min Rain = 0
KSE1 192225Z 15014KT 26/04 A2981 RMK A01 T02590035  RH  024%=      5-min Rain = 0
KSE1 192230Z 15013G19KT 26/03 A2981 RMK A01 T02580034  RH  024%=      5-min Rain = 0
KSE1 192235Z 15012G17KT 26/03 A2981 RMK A01 T02570033  RH  024%=      5-min Rain = 0
KSE1 192240Z 15014KT 26/03 A2981 RMK A01 T02570028  RH  023%=      5-min Rain = 0
KSE1 192245Z 15013G18KT 26/03 A2981 RMK A01 T02550025  RH  023%=      5-min Rain = 0
KSE1 192250Z 15012KT 25/02 A298 RMK A01 T02530023  RH  023%=      5-min Rain = 0
KSE1 192255Z 15013KT 25/02 A298 RMK A01 T02520023  RH  023%=      5-min Rain = 0
KSE1 192300Z 15012G17KT 25/02 A298 RMK A01 T02500023  RH  023%=      5-min Rain = 0
KSE1 192305Z 15011G16KT 25/02 A2981 RMK A01 T02450024  RH  024%=      5-min Rain = 0
KSE1 192310Z 14009KT 24/03 A2981 RMK A01 T02410025  RH  025%=      5-min Rain = 0
KSE1 192315Z 14009KT 24/03 A2981 RMK A01 T02370026  RH  026%=      5-min Rain = 0
KSE1 192320Z 15010KT 23/03 A2981 RMK A01 T02320027  RH  026%=      5-min Rain = 0
KSE1 192325Z 15010KT 23/03 A2981 RMK A01 T02300027  RH  027%=      5-min Rain = 0
KSE1 192330Z 15010KT 23/03 A2981 RMK A01 T02290027  RH  027%=      5-min Rain = 0
KSE1 192335Z 15009KT 23/03 A2981 RMK A01 T02260028  RH  028%=      5-min Rain = 0
KSE1 192340Z 15009KT 22/03 A2981 RMK A01 T02220028  RH  028%=      5-min Rain = 0
KSE1 192345Z 15009KT 22/03 A2981 RMK A01 T02210028  RH  029%=      5-min Rain = 0
KSE1 192350Z 15009KT 22/03 A2981 RMK A01 T02170029  RH  029%=      5-min Rain = 0
KSE1 192355Z 15009KT 22/03 A2982 RMK A01 T02160028  RH  030%=      5-min Rain = 0
KSE1 200000Z 15009KT 21/03 A2982 RMK A01 T02120029  RH  030%=      5-min Rain = 0
KSE1 200005Z 15010KT 21/03 A2982 RMK A01 T02110029  RH  031%=      5-min Rain = 0
KSE1 200010Z 15009KT 21/03 A2982 RMK A01 T02090029  RH  031%=      5-min Rain = 0
KSE1 200015Z 15010KT 21/03 A2981 RMK A01 T02060029  RH  032%=      5-min Rain = 0
KSE1 200020Z 15010KT 21/03 A2981 RMK A01 T02060030  RH  032%=      5-min Rain = 0
KSE1 200025Z 15010KT 20/03 A2981 RMK A01 T02040031  RH  032%=      5-min Rain = 0
KSE1 200030Z 15010KT 20/03 A2981 RMK A01 T02010031  RH  033%=      5-min Rain = 0
KSE1 200035Z 15011KT 20/03 A2981 RMK A01 T02010032  RH  033%=      5-min Rain = 0
KSE1 200040Z 15011KT 20/03 A2981 RMK A01 T02010032  RH  033%=      5-min Rain = 0
KSE1 200045Z 15011KT 20/03 A2981 RMK A01 T02010033  RH  033%=      5-min Rain = 0
KSE1 200050Z 15011KT 20/03 A2982 RMK A01 T02020034  RH  034%=      5-min Rain = 0
KSE1 200055Z 15011KT 20/04 A2981 RMK A01 T02020035  RH  034%=      5-min Rain = 0
KSE1 200100Z 15012KT 20/04 A2981 RMK A01 T02010035  RH  034%=      5-min Rain = 0
KSE1 200105Z 15011KT 20/04 A2982 RMK A01 T02010036  RH  034%=      5-min Rain = 0
KSE1 200110Z 15011KT 20/04 A2982 RMK A01 T02000037  RH  035%=      5-min Rain = 0
KSE1 200115Z 15011G16KT 20/04 A2982 RMK A01 T02000038  RH  035%=      5-min Rain = 0
KSE1 200120Z 15011KT 20/04 A2982 RMK A01 T01980039  RH  036%=      5-min Rain = 0
KSE1 200125Z 15011KT 20/04 A2982 RMK A01 T01960040  RH  036%=      5-min Rain = 0
KSE1 200130Z 15011KT 20/04 A2982 RMK A01 T01960041  RH  037%=      5-min Rain = 0
KSE1 200135Z 15012KT 20/04 A2982 RMK A01 T01950042  RH  037%=      5-min Rain = 0
KSE1 200140Z 15012KT 19/04 A2982 RMK A01 T01930043  RH  038%=      5-min Rain = 0
KSE1 200145Z 15011KT 19/04 A2982 RMK A01 T01920044  RH  038%=      5-min Rain = 0
KSE1 200150Z 15011KT 19/05 A2982 RMK A01 T01920045  RH  039%=      5-min Rain = 0
KSE1 200155Z 15011KT 19/05 A2982 RMK A01 T01900046  RH  039%=      5-min Rain = 0
KSE1 200200Z 15011KT 19/05 A2982 RMK A01 T01890046  RH  040%=      5-min Rain = 0
KSE1 200205Z 15012G17KT 19/05 A2982 RMK A01 T01920048  RH  039%=      5-min Rain = 0
KSE1 200210Z 15012KT 19/05 A2982 RMK A01 T01920049  RH  040%=      5-min Rain = 0
KSE1 200215Z 14013KT 19/05 A2982 RMK A01 T01900049  RH  040%=      5-min Rain = 0
KSE1 200220Z 14013G18KT 19/05 A2982 RMK A01 T01890048  RH  040%=      5-min Rain = 0
KSE1 200225Z 14013KT 19/05 A2981 RMK A01 T01880048  RH  041%=      5-min Rain = 0
KSE1 200230Z 14014KT 19/05 A2982 RMK A01 T01880049  RH  041%=      5-min Rain = 0
KSE1 200235Z 14013KT 19/05 A2982 RMK A01 T01880049  RH  041%=      5-min Rain = 0
KSE1 200240Z 15014KT 19/05 A2981 RMK A01 T01880049  RH  041%=      5-min Rain = 0
KSE1 200245Z 15014KT 19/05 A2982 RMK A01 T01880049  RH  041%=      5-min Rain = 0
KSE1 200250Z 15014G19KT 19/05 A2982 RMK A01 T01890049  RH  040%=      5-min Rain = 0
KSE1 200255Z 15015KT 19/05 A2982 RMK A01 T01890049  RH  040%=      5-min Rain = 0
KSE1 200300Z 15015KT 19/05 A2981 RMK A01 T01890050  RH  041%=      5-min Rain = 0
KSE1 200305Z 15015KT 19/05 A2981 RMK A01 T01880051  RH  041%=      5-min Rain = 0
KSE1 200310Z 15015KT 19/05 A2981 RMK A01 T01860052  RH  042%=      5-min Rain = 0
KSE1 200315Z 15015KT 19/05 A2981 RMK A01 T01860053  RH  043%=      5-min Rain = 0
KSE1 200320Z 15014G19KT 18/06 A2982 RMK A01 T01840055  RH  044%=      5-min Rain = 0
KSE1 200325Z 15014G20KT 18/06 A2982 RMK A01 T01830057  RH  044%=      5-min Rain = 0
KSE1 200330Z 15014G21KT 18/06 A2982 RMK A01 T01840058  RH  045%=      5-min Rain = 0
KSE1 200335Z 15014KT 19/06 A2982 RMK A01 T01850059  RH  045%=      5-min Rain = 0
KSE1 200340Z 15014G19KT 18/06 A2982 RMK A01 T01840060  RH  045%=      5-min Rain = 0
KSE1 200345Z 15014G19KT 18/06 A2983 RMK A01 T01830061  RH  046%=      5-min Rain = 0
KSE1 200350Z 15014G19KT 18/06 A2983 RMK A01 T01800061  RH  047%=      5-min Rain = 0
KSE1 200355Z 15014G19KT 18/06 A2983 RMK A01 T01800063  RH  047%=      5-min Rain = 0
KSE1 200400Z 15014KT 18/06 A2983 RMK A01 T01780063  RH  048%=      5-min Rain = 0
KSE1 200405Z 15013G19KT 18/06 A2983 RMK A01 T01760064  RH  049%=      5-min Rain = 0
KSE1 200410Z 15014KT 18/07 A2983 RMK A01 T01760065  RH  049%=      5-min Rain = 0
KSE1 200415Z 15014G19KT 18/07 A2983 RMK A01 T01750066  RH  050%=      5-min Rain = 0
KSE1 200420Z 15013G18KT 17/07 A2983 RMK A01 T01730066  RH  051%=      5-min Rain = 0
KSE1 200425Z 15014G19KT 17/07 A2983 RMK A01 T01720067  RH  051%=      5-min Rain = 0
KSE1 200430Z 15013G18KT 17/07 A2983 RMK A01 T01710068  RH  052%=      5-min Rain = 0
KSE1 200435Z 15012G19KT 17/07 A2983 RMK A01 T01710069  RH  052%=      5-min Rain = 0
KSE1 200440Z 15012KT 17/07 A2983 RMK A01 T01690069  RH  053%=      5-min Rain = 0
KSE1 200445Z 16012G18KT 17/07 A2983 RMK A01 T01690070  RH  054%=      5-min Rain = 0
KSE1 200450Z 16013G18KT 17/07 A2983 RMK A01 T01680071  RH  054%=      5-min Rain = 0
KSE1 200455Z 16013G18KT 17/07 A2983 RMK A01 T01670071  RH  055%=      5-min Rain = 0
KSE1 200500Z 16013KT 17/07 A2983 RMK A01 T01660072  RH  055%=      5-min Rain = 0
KSE1 200505Z 16012G17KT 16/07 A2983 RMK A01 T01640072  RH  056%=      5-min Rain = 0
KSE1 200510Z 16013KT 16/07 A2983 RMK A01 T01640073  RH  056%=      5-min Rain = 0
KSE1 200515Z 16014KT 16/07 A2983 RMK A01 T01630074  RH  057%=      5-min Rain = 0
KSE1 200520Z 16012G17KT 16/07 A2983 RMK A01 T01630074  RH  057%=      5-min Rain = 0
KSE1 200525Z 16013KT 16/08 A2983 RMK A01 T01620075  RH  058%=      5-min Rain = 0
KSE1 200530Z 16013KT 16/08 A2983 RMK A01 T01620075  RH  058%=      5-min Rain = 0
KSE1 200535Z 16013KT 16/08 A2983 RMK A01 T01610076  RH  058%=      5-min Rain = 0
KSE1 200540Z 16012KT 16/08 A2983 RMK A01 T01610077  RH  059%=      5-min Rain = 0
KSE1 200545Z 16012KT 16/08 A2983 RMK A01 T01600077  RH  060%=      5-min Rain = 0
KSE1 200550Z 15011KT 16/08 A2983 RMK A01 T01580077  RH  060%=      5-min Rain = 0
KSE1 200555Z 15010KT 16/08 A2984 RMK A01 T01560077  RH  061%=      5-min Rain = 0

Page generated in 0.0091 seconds.